sensor_id;sensor_type;location;lat;lon;timestamp;P1;durP1;ratioP1;P2;durP2;ratioP2
801;SDS011;383;48.766;9.270;2024-03-02T00:02:26;22.67;;;8.82;;
801;SDS011;383;48.766;9.270;2024-03-02T00:04:53;22.92;;;10.70;;
801;SDS011;383;48.766;9.270;2024-03-02T00:07:22;22.90;;;10.30;;
801;SDS011;383;48.766;9.270;2024-03-02T00:09:51;26.42;;;10.73;;
801;SDS011;383;48.766;9.270;2024-03-02T00:12:19;20.42;;;7.68;;
801;SDS011;383;48.766;9.270;2024-03-02T00:14:46;21.60;;;9.95;;
801;SDS011;383;48.766;9.270;2024-03-02T00:17:17;24.52;;;9.15;;
801;SDS011;383;48.766;9.270;2024-03-02T00:19:45;23.00;;;9.00;;
801;SDS011;383;48.766;9.270;2024-03-02T00:22:12;22.48;;;10.15;;
801;SDS011;383;48.766;9.270;2024-03-02T00:24:40;17.38;;;8.30;;
801;SDS011;383;48.766;9.270;2024-03-02T00:27:07;22.45;;;9.73;;
801;SDS011;383;48.766;9.270;2024-03-02T00:29:36;22.25;;;8.95;;
801;SDS011;383;48.766;9.270;2024-03-02T00:32:03;23.52;;;9.90;;
801;SDS011;383;48.766;9.270;2024-03-02T00:34:30;20.45;;;9.18;;
801;SDS011;383;48.766;9.270;2024-03-02T00:36:57;20.42;;;8.70;;
801;SDS011;383;48.766;9.270;2024-03-02T00:39:25;19.23;;;9.05;;
801;SDS011;383;48.766;9.270;2024-03-02T00:41:54;18.73;;;8.60;;
801;SDS011;383;48.766;9.270;2024-03-02T00:44:21;26.08;;;10.27;;
801;SDS011;383;48.766;9.270;2024-03-02T00:46:54;24.13;;;9.88;;
801;SDS011;383;48.766;9.270;2024-03-02T00:49:22;19.40;;;9.60;;
801;SDS011;383;48.766;9.270;2024-03-02T00:51:50;22.50;;;9.20;;
801;SDS011;383;48.766;9.270;2024-03-02T00:54:18;23.45;;;9.93;;
801;SDS011;383;48.766;9.270;2024-03-02T00:56:46;25.15;;;9.77;;
801;SDS011;383;48.766;9.270;2024-03-02T00:59:15;20.40;;;8.65;;
801;SDS011;383;48.766;9.270;2024-03-02T01:01:42;22.13;;;9.32;;
801;SDS011;383;48.766;9.270;2024-03-02T01:04:09;17.92;;;9.07;;
801;SDS011;383;48.766;9.270;2024-03-02T01:06:36;19.38;;;8.48;;
801;SDS011;383;48.766;9.270;2024-03-02T01:09:03;22.05;;;9.20;;
801;SDS011;383;48.766;9.270;2024-03-02T01:11:31;20.33;;;8.98;;
801;SDS011;383;48.766;9.270;2024-03-02T01:13:58;17.10;;;8.63;;
801;SDS011;383;48.766;9.270;2024-03-02T01:16:26;17.05;;;8.10;;
801;SDS011;383;48.766;9.270;2024-03-02T01:18:53;20.70;;;9.80;;
801;SDS011;383;48.766;9.270;2024-03-02T01:21:20;20.65;;;10.32;;
801;SDS011;383;48.766;9.270;2024-03-02T01:23:47;18.85;;;9.60;;
801;SDS011;383;48.766;9.270;2024-03-02T01:26:14;25.92;;;10.32;;
801;SDS011;383;48.766;9.270;2024-03-02T01:28:41;22.65;;;10.43;;
801;SDS011;383;48.766;9.270;2024-03-02T01:31:08;20.73;;;9.13;;
801;SDS011;383;48.766;9.270;2024-03-02T01:33:37;24.23;;;10.02;;
801;SDS011;383;48.766;9.270;2024-03-02T01:36:04;22.73;;;8.63;;
801;SDS011;383;48.766;9.270;2024-03-02T01:38:33;19.33;;;8.90;;
801;SDS011;383;48.766;9.270;2024-03-02T01:41:00;23.33;;;9.75;;
801;SDS011;383;48.766;9.270;2024-03-02T01:43:27;24.33;;;9.20;;
801;SDS011;383;48.766;9.270;2024-03-02T01:45:54;30.73;;;10.70;;
801;SDS011;383;48.766;9.270;2024-03-02T01:48:21;17.92;;;9.43;;
801;SDS011;383;48.766;9.270;2024-03-02T01:50:50;26.63;;;11.60;;
801;SDS011;383;48.766;9.270;2024-03-02T01:53:17;22.13;;;9.10;;
801;SDS011;383;48.766;9.270;2024-03-02T01:55:44;26.92;;;10.27;;
801;SDS011;383;48.766;9.270;2024-03-02T01:58:11;19.60;;;8.75;;
801;SDS011;383;48.766;9.270;2024-03-02T02:00:38;17.48;;;8.80;;
801;SDS011;383;48.766;9.270;2024-03-02T02:03:05;24.60;;;9.68;;
801;SDS011;383;48.766;9.270;2024-03-02T02:05:32;19.98;;;9.52;;
801;SDS011;383;48.766;9.270;2024-03-02T02:08:02;20.38;;;9.60;;
801;SDS011;383;48.766;9.270;2024-03-02T02:10:29;22.67;;;9.82;;
801;SDS011;383;48.766;9.270;2024-03-02T02:12:56;25.33;;;8.82;;
801;SDS011;383;48.766;9.270;2024-03-02T02:15:24;22.05;;;10.10;;
801;SDS011;383;48.766;9.270;2024-03-02T02:17:51;20.05;;;8.90;;
801;SDS011;383;48.766;9.270;2024-03-02T02:20:18;23.75;;;10.43;;
801;SDS011;383;48.766;9.270;2024-03-02T02:22:59;18.38;;;8.18;;
801;SDS011;383;48.766;9.270;2024-03-02T02:25:26;20.00;;;10.20;;
801;SDS011;383;48.766;9.270;2024-03-02T02:27:57;33.22;;;11.13;;
801;SDS011;383;48.766;9.270;2024-03-02T02:30:24;20.30;;;9.93;;
801;SDS011;383;48.766;9.270;2024-03-02T02:32:52;23.80;;;8.95;;
801;SDS011;383;48.766;9.270;2024-03-02T02:35:19;24.67;;;9.95;;
801;SDS011;383;48.766;9.270;2024-03-02T02:37:46;27.08;;;9.63;;
801;SDS011;383;48.766;9.270;2024-03-02T02:40:15;24.25;;;9.88;;
801;SDS011;383;48.766;9.270;2024-03-02T02:42:43;25.23;;;8.25;;
801;SDS011;383;48.766;9.270;2024-03-02T02:45:10;23.10;;;10.20;;
801;SDS011;383;48.766;9.270;2024-03-02T02:47:38;21.45;;;9.27;;
801;SDS011;383;48.766;9.270;2024-03-02T02:50:07;24.95;;;10.68;;
801;SDS011;383;48.766;9.270;2024-03-02T02:52:34;21.92;;;10.02;;
801;SDS011;383;48.766;9.270;2024-03-02T02:55:03;25.48;;;11.50;;
801;SDS011;383;48.766;9.270;2024-03-02T02:57:32;21.40;;;9.65;;
801;SDS011;383;48.766;9.270;2024-03-02T03:00:02;26.90;;;9.75;;
801;SDS011;383;48.766;9.270;2024-03-02T03:02:35;21.52;;;9.40;;
801;SDS011;383;48.766;9.270;2024-03-02T03:05:02;17.25;;;9.40;;
801;SDS011;383;48.766;9.270;2024-03-02T03:07:29;25.52;;;11.23;;
801;SDS011;383;48.766;9.270;2024-03-02T03:09:55;23.15;;;10.65;;
801;SDS011;383;48.766;9.270;2024-03-02T03:12:22;26.25;;;10.20;;
801;SDS011;383;48.766;9.270;2024-03-02T03:14:50;20.33;;;8.55;;
801;SDS011;383;48.766;9.270;2024-03-02T03:17:17;24.70;;;8.45;;
801;SDS011;383;48.766;9.270;2024-03-02T03:19:44;25.67;;;9.15;;
801;SDS011;383;48.766;9.270;2024-03-02T03:22:12;21.55;;;9.75;;
801;SDS011;383;48.766;9.270;2024-03-02T03:24:39;22.02;;;9.23;;
801;SDS011;383;48.766;9.270;2024-03-02T03:27:06;19.15;;;8.98;;
801;SDS011;383;48.766;9.270;2024-03-02T03:29:33;18.33;;;8.75;;
801;SDS011;383;48.766;9.270;2024-03-02T03:32:01;20.92;;;7.63;;
801;SDS011;383;48.766;9.270;2024-03-02T03:34:29;24.92;;;9.43;;
801;SDS011;383;48.766;9.270;2024-03-02T03:36:59;28.95;;;9.32;;
801;SDS011;383;48.766;9.270;2024-03-02T03:39:26;29.67;;;10.20;;
801;SDS011;383;48.766;9.270;2024-03-02T03:41:53;23.73;;;10.80;;
801;SDS011;383;48.766;9.270;2024-03-02T03:44:20;30.55;;;12.20;;
801;SDS011;383;48.766;9.270;2024-03-02T03:46:47;26.98;;;10.90;;
801;SDS011;383;48.766;9.270;2024-03-02T03:49:15;31.98;;;12.30;;
801;SDS011;383;48.766;9.270;2024-03-02T03:51:43;30.98;;;12.13;;
801;SDS011;383;48.766;9.270;2024-03-02T03:54:10;27.42;;;10.93;;
801;SDS011;383;48.766;9.270;2024-03-02T03:56:37;27.98;;;10.45;;
801;SDS011;383;48.766;9.270;2024-03-02T03:59:04;29.88;;;10.55;;
801;SDS011;383;48.766;9.270;2024-03-02T04:01:31;24.88;;;10.75;;
801;SDS011;383;48.766;9.270;2024-03-02T04:03:58;31.00;;;10.45;;
801;SDS011;383;48.766;9.270;2024-03-02T04:06:28;31.50;;;11.82;;
801;SDS011;383;48.766;9.270;2024-03-02T04:08:55;22.83;;;10.52;;
801;SDS011;383;48.766;9.270;2024-03-02T04:11:22;32.55;;;10.85;;
801;SDS011;383;48.766;9.270;2024-03-02T04:13:49;24.90;;;9.70;;
801;SDS011;383;48.766;9.270;2024-03-02T04:16:16;23.13;;;10.93;;
801;SDS011;383;48.766;9.270;2024-03-02T04:18:43;20.00;;;9.98;;
801;SDS011;383;48.766;9.270;2024-03-02T04:21:10;24.00;;;8.82;;
801;SDS011;383;48.766;9.270;2024-03-02T04:23:38;23.75;;;9.60;;
801;SDS011;383;48.766;9.270;2024-03-02T04:26:05;24.67;;;9.77;;
801;SDS011;383;48.766;9.270;2024-03-02T04:28:32;24.58;;;10.80;;
801;SDS011;383;48.766;9.270;2024-03-02T04:30:59;26.25;;;10.18;;
801;SDS011;383;48.766;9.270;2024-03-02T04:33:26;21.27;;;9.13;;
801;SDS011;383;48.766;9.270;2024-03-02T04:35:53;21.85;;;10.88;;
801;SDS011;383;48.766;9.270;2024-03-02T04:38:20;26.23;;;10.13;;
801;SDS011;383;48.766;9.270;2024-03-02T04:40:49;23.33;;;9.70;;
801;SDS011;383;48.766;9.270;2024-03-02T04:43:16;23.05;;;9.43;;
801;SDS011;383;48.766;9.270;2024-03-02T04:45:44;27.38;;;9.55;;
801;SDS011;383;48.766;9.270;2024-03-02T04:48:11;30.40;;;11.70;;
801;SDS011;383;48.766;9.270;2024-03-02T04:50:38;24.20;;;11.68;;
801;SDS011;383;48.766;9.270;2024-03-02T04:53:05;27.77;;;12.40;;
801;SDS011;383;48.766;9.270;2024-03-02T04:55:33;32.65;;;13.23;;
801;SDS011;383;48.766;9.270;2024-03-02T04:58:30;27.95;;;13.52;;
801;SDS011;383;48.766;9.270;2024-03-02T05:00:57;29.23;;;14.95;;
801;SDS011;383;48.766;9.270;2024-03-02T05:03:24;34.58;;;15.18;;
801;SDS011;383;48.766;9.270;2024-03-02T05:05:51;35.35;;;15.48;;
801;SDS011;383;48.766;9.270;2024-03-02T05:08:18;30.80;;;13.07;;
801;SDS011;383;48.766;9.270;2024-03-02T05:10:45;39.22;;;16.98;;
801;SDS011;383;48.766;9.270;2024-03-02T05:13:12;43.13;;;18.98;;
801;SDS011;383;48.766;9.270;2024-03-02T05:15:39;38.42;;;16.58;;
801;SDS011;383;48.766;9.270;2024-03-02T05:18:06;37.92;;;17.63;;
801;SDS011;383;48.766;9.270;2024-03-02T05:20:33;38.25;;;16.45;;
801;SDS011;383;48.766;9.270;2024-03-02T05:23:00;40.30;;;16.02;;
801;SDS011;383;48.766;9.270;2024-03-02T05:25:27;41.85;;;16.98;;
801;SDS011;383;48.766;9.270;2024-03-02T05:27:54;35.75;;;17.33;;
801;SDS011;383;48.766;9.270;2024-03-02T05:30:21;33.05;;;13.75;;
801;SDS011;383;48.766;9.270;2024-03-02T05:32:52;36.33;;;15.52;;
801;SDS011;383;48.766;9.270;2024-03-02T05:35:19;33.45;;;15.60;;
801;SDS011;383;48.766;9.270;2024-03-02T05:37:46;34.45;;;14.57;;
801;SDS011;383;48.766;9.270;2024-03-02T05:40:13;27.35;;;12.90;;
801;SDS011;383;48.766;9.270;2024-03-02T05:42:40;31.15;;;14.38;;
801;SDS011;383;48.766;9.270;2024-03-02T05:45:08;35.25;;;12.85;;
801;SDS011;383;48.766;9.270;2024-03-02T05:47:35;24.33;;;12.32;;
801;SDS011;383;48.766;9.270;2024-03-02T05:50:05;24.40;;;12.20;;
801;SDS011;383;48.766;9.270;2024-03-02T05:52:32;27.15;;;11.77;;
801;SDS011;383;48.766;9.270;2024-03-02T05:54:59;20.10;;;10.00;;
801;SDS011;383;48.766;9.270;2024-03-02T05:57:26;28.30;;;11.35;;
801;SDS011;383;48.766;9.270;2024-03-02T06:00:10;27.63;;;10.65;;
801;SDS011;383;48.766;9.270;2024-03-02T06:02:38;26.27;;;10.07;;
801;SDS011;383;48.766;9.270;2024-03-02T06:05:07;34.63;;;11.27;;
801;SDS011;383;48.766;9.270;2024-03-02T06:07:35;26.10;;;10.60;;
801;SDS011;383;48.766;9.270;2024-03-02T06:10:02;22.23;;;9.88;;
801;SDS011;383;48.766;9.270;2024-03-02T06:12:30;27.30;;;10.40;;
801;SDS011;383;48.766;9.270;2024-03-02T06:14:57;25.83;;;9.98;;
801;SDS011;383;48.766;9.270;2024-03-02T06:17:24;19.90;;;9.07;;
801;SDS011;383;48.766;9.270;2024-03-02T06:19:51;26.05;;;9.32;;
801;SDS011;383;48.766;9.270;2024-03-02T06:22:20;27.15;;;10.80;;
801;SDS011;383;48.766;9.270;2024-03-02T06:24:48;23.13;;;10.05;;
801;SDS011;383;48.766;9.270;2024-03-02T06:27:15;23.30;;;9.25;;
801;SDS011;383;48.766;9.270;2024-03-02T06:29:42;27.10;;;11.38;;
801;SDS011;383;48.766;9.270;2024-03-02T06:32:09;23.13;;;10.48;;
801;SDS011;383;48.766;9.270;2024-03-02T06:34:36;28.15;;;11.25;;
801;SDS011;383;48.766;9.270;2024-03-02T06:37:03;28.85;;;10.90;;
801;SDS011;383;48.766;9.270;2024-03-02T06:39:31;25.02;;;11.63;;
801;SDS011;383;48.766;9.270;2024-03-02T06:41:59;32.00;;;12.52;;
801;SDS011;383;48.766;9.270;2024-03-02T06:44:26;39.78;;;13.10;;
801;SDS011;383;48.766;9.270;2024-03-02T06:46:53;31.25;;;12.95;;
801;SDS011;383;48.766;9.270;2024-03-02T06:49:20;29.30;;;10.85;;
801;SDS011;383;48.766;9.270;2024-03-02T06:51:47;30.48;;;12.80;;
801;SDS011;383;48.766;9.270;2024-03-02T06:54:15;29.52;;;12.63;;
801;SDS011;383;48.766;9.270;2024-03-02T06:56:43;25.33;;;10.07;;
801;SDS011;383;48.766;9.270;2024-03-02T06:59:10;30.83;;;12.30;;
801;SDS011;383;48.766;9.270;2024-03-02T07:01:37;30.50;;;10.70;;
801;SDS011;383;48.766;9.270;2024-03-02T07:04:04;30.17;;;12.63;;
801;SDS011;383;48.766;9.270;2024-03-02T07:06:32;28.00;;;11.20;;
801;SDS011;383;48.766;9.270;2024-03-02T07:08:59;30.40;;;11.80;;
801;SDS011;383;48.766;9.270;2024-03-02T07:11:26;28.45;;;12.65;;
801;SDS011;383;48.766;9.270;2024-03-02T07:13:54;33.05;;;12.45;;
801;SDS011;383;48.766;9.270;2024-03-02T07:16:21;26.05;;;11.88;;
801;SDS011;383;48.766;9.270;2024-03-02T07:18:53;28.92;;;12.52;;
801;SDS011;383;48.766;9.270;2024-03-02T07:21:21;30.77;;;12.60;;
801;SDS011;383;48.766;9.270;2024-03-02T07:23:48;26.95;;;10.35;;
801;SDS011;383;48.766;9.270;2024-03-02T07:26:15;26.90;;;12.30;;
801;SDS011;383;48.766;9.270;2024-03-02T07:28:43;33.92;;;13.90;;
801;SDS011;383;48.766;9.270;2024-03-02T07:31:11;33.20;;;14.38;;
801;SDS011;383;48.766;9.270;2024-03-02T07:33:38;30.63;;;13.57;;
801;SDS011;383;48.766;9.270;2024-03-02T07:36:06;27.25;;;10.40;;
801;SDS011;383;48.766;9.270;2024-03-02T07:38:33;31.13;;;11.75;;
801;SDS011;383;48.766;9.270;2024-03-02T07:41:00;28.33;;;10.93;;
801;SDS011;383;48.766;9.270;2024-03-02T07:43:27;25.10;;;12.30;;
801;SDS011;383;48.766;9.270;2024-03-02T07:45:54;26.42;;;11.93;;
801;SDS011;383;48.766;9.270;2024-03-02T07:48:23;25.20;;;8.82;;
801;SDS011;383;48.766;9.270;2024-03-02T07:50:50;24.30;;;10.13;;
801;SDS011;383;48.766;9.270;2024-03-02T07:53:18;22.05;;;10.40;;
801;SDS011;383;48.766;9.270;2024-03-02T07:55:46;24.20;;;10.95;;
801;SDS011;383;48.766;9.270;2024-03-02T07:58:13;28.25;;;11.20;;
801;SDS011;383;48.766;9.270;2024-03-02T08:00:40;21.45;;;9.70;;
801;SDS011;383;48.766;9.270;2024-03-02T08:03:07;28.08;;;9.25;;
801;SDS011;383;48.766;9.270;2024-03-02T08:05:37;21.85;;;8.25;;
801;SDS011;383;48.766;9.270;2024-03-02T08:08:04;25.73;;;8.35;;
801;SDS011;383;48.766;9.270;2024-03-02T08:10:32;19.77;;;8.48;;
801;SDS011;383;48.766;9.270;2024-03-02T08:12:59;22.33;;;9.75;;
801;SDS011;383;48.766;9.270;2024-03-02T08:15:26;23.00;;;9.82;;
801;SDS011;383;48.766;9.270;2024-03-02T08:17:53;21.80;;;9.60;;
801;SDS011;383;48.766;9.270;2024-03-02T08:20:21;18.60;;;9.15;;
801;SDS011;383;48.766;9.270;2024-03-02T08:22:49;21.50;;;9.07;;
801;SDS011;383;48.766;9.270;2024-03-02T08:25:16;23.35;;;10.30;;
801;SDS011;383;48.766;9.270;2024-03-02T08:27:44;17.02;;;7.90;;
801;SDS011;383;48.766;9.270;2024-03-02T08:30:11;20.73;;;8.27;;
801;SDS011;383;48.766;9.270;2024-03-02T08:32:38;18.67;;;10.05;;
801;SDS011;383;48.766;9.270;2024-03-02T08:35:06;24.48;;;9.02;;
801;SDS011;383;48.766;9.270;2024-03-02T08:37:33;18.73;;;8.30;;
801;SDS011;383;48.766;9.270;2024-03-02T08:40:01;18.42;;;7.95;;
801;SDS011;383;48.766;9.270;2024-03-02T08:42:32;15.13;;;8.45;;
801;SDS011;383;48.766;9.270;2024-03-02T08:44:59;16.90;;;9.07;;
801;SDS011;383;48.766;9.270;2024-03-02T08:47:27;23.60;;;9.88;;
801;SDS011;383;48.766;9.270;2024-03-02T08:49:54;25.60;;;10.90;;
801;SDS011;383;48.766;9.270;2024-03-02T08:52:21;23.27;;;10.65;;
801;SDS011;383;48.766;9.270;2024-03-02T08:54:48;28.13;;;12.35;;
801;SDS011;383;48.766;9.270;2024-03-02T08:57:16;23.10;;;10.13;;
801;SDS011;383;48.766;9.270;2024-03-02T08:59:43;20.48;;;10.77;;
801;SDS011;383;48.766;9.270;2024-03-02T09:02:10;17.30;;;8.40;;
801;SDS011;383;48.766;9.270;2024-03-02T09:04:37;15.25;;;7.50;;
801;SDS011;383;48.766;9.270;2024-03-02T09:07:04;14.43;;;7.50;;
801;SDS011;383;48.766;9.270;2024-03-02T09:09:32;18.73;;;8.55;;
801;SDS011;383;48.766;9.270;2024-03-02T09:11:59;21.90;;;8.30;;
801;SDS011;383;48.766;9.270;2024-03-02T09:14:28;14.52;;;7.22;;
801;SDS011;383;48.766;9.270;2024-03-02T09:16:55;11.55;;;6.20;;
801;SDS011;383;48.766;9.270;2024-03-02T09:19:22;20.63;;;6.10;;
801;SDS011;383;48.766;9.270;2024-03-02T09:21:49;10.07;;;5.30;;
801;SDS011;383;48.766;9.270;2024-03-02T09:24:16;11.32;;;5.53;;
801;SDS011;383;48.766;9.270;2024-03-02T09:26:43;11.88;;;5.80;;
801;SDS011;383;48.766;9.270;2024-03-02T09:29:10;13.00;;;5.70;;
801;SDS011;383;48.766;9.270;2024-03-02T09:31:40;9.27;;;5.13;;
801;SDS011;383;48.766;9.270;2024-03-02T09:34:07;10.07;;;6.22;;
801;SDS011;383;48.766;9.270;2024-03-02T09:36:34;13.13;;;6.32;;
801;SDS011;383;48.766;9.270;2024-03-02T09:39:01;6.53;;;4.43;;
801;SDS011;383;48.766;9.270;2024-03-02T09:41:29;7.90;;;5.20;;
801;SDS011;383;48.766;9.270;2024-03-02T09:43:56;9.40;;;4.65;;
801;SDS011;383;48.766;9.270;2024-03-02T09:46:23;9.13;;;4.60;;
801;SDS011;383;48.766;9.270;2024-03-02T09:48:52;10.00;;;4.53;;
801;SDS011;383;48.766;9.270;2024-03-02T09:51:19;10.88;;;5.07;;
801;SDS011;383;48.766;9.270;2024-03-02T09:53:47;9.10;;;4.70;;
801;SDS011;383;48.766;9.270;2024-03-02T09:56:14;11.80;;;5.30;;
801;SDS011;383;48.766;9.270;2024-03-02T09:58:43;15.38;;;5.28;;
801;SDS011;383;48.766;9.270;2024-03-02T10:01:10;12.30;;;4.70;;
801;SDS011;383;48.766;9.270;2024-03-02T10:03:37;6.35;;;3.58;;
801;SDS011;383;48.766;9.270;2024-03-02T10:06:22;8.38;;;4.30;;
801;SDS011;383;48.766;9.270;2024-03-02T10:08:49;5.90;;;3.60;;
801;SDS011;383;48.766;9.270;2024-03-02T10:11:26;9.48;;;4.03;;
801;SDS011;383;48.766;9.270;2024-03-02T10:14:04;10.95;;;4.18;;
801;SDS011;383;48.766;9.270;2024-03-02T10:16:33;5.73;;;3.80;;
801;SDS011;383;48.766;9.270;2024-03-02T10:19:08;5.60;;;3.63;;
801;SDS011;383;48.766;9.270;2024-03-02T10:21:43;6.00;;;3.73;;
801;SDS011;383;48.766;9.270;2024-03-02T10:24:10;6.30;;;3.67;;
801;SDS011;383;48.766;9.270;2024-03-02T10:26:37;11.40;;;6.47;;
801;SDS011;383;48.766;9.270;2024-03-02T10:29:04;5.37;;;3.60;;
801;SDS011;383;48.766;9.270;2024-03-02T10:31:31;10.07;;;4.97;;
801;SDS011;383;48.766;9.270;2024-03-02T10:33:58;11.40;;;5.30;;
801;SDS011;383;48.766;9.270;2024-03-02T10:36:27;7.40;;;3.77;;
801;SDS011;383;48.766;9.270;2024-03-02T10:38:57;8.83;;;4.57;;
801;SDS011;383;48.766;9.270;2024-03-02T10:41:26;7.67;;;3.67;;
801;SDS011;383;48.766;9.270;2024-03-02T10:43:53;6.67;;;4.23;;
801;SDS011;383;48.766;9.270;2024-03-02T10:46:25;9.70;;;3.93;;
801;SDS011;383;48.766;9.270;2024-03-02T10:48:54;9.17;;;4.40;;
801;SDS011;383;48.766;9.270;2024-03-02T10:51:25;6.40;;;4.03;;
801;SDS011;383;48.766;9.270;2024-03-02T10:53:53;7.63;;;4.03;;
801;SDS011;383;48.766;9.270;2024-03-02T10:56:25;7.10;;;4.20;;
801;SDS011;383;48.766;9.270;2024-03-02T10:58:53;5.83;;;4.10;;
801;SDS011;383;48.766;9.270;2024-03-02T11:01:22;7.43;;;5.27;;
801;SDS011;383;48.766;9.270;2024-03-02T11:03:50;6.03;;;4.53;;
801;SDS011;383;48.766;9.270;2024-03-02T11:06:17;5.70;;;3.43;;
801;SDS011;383;48.766;9.270;2024-03-02T11:08:44;5.80;;;3.70;;
801;SDS011;383;48.766;9.270;2024-03-02T11:11:14;8.80;;;3.37;;
801;SDS011;383;48.766;9.270;2024-03-02T11:13:44;4.90;;;3.30;;
801;SDS011;383;48.766;9.270;2024-03-02T11:16:15;4.30;;;3.50;;
801;SDS011;383;48.766;9.270;2024-03-02T11:18:46;6.03;;;3.73;;
801;SDS011;383;48.766;9.270;2024-03-02T11:21:14;4.70;;;3.07;;
801;SDS011;383;48.766;9.270;2024-03-02T11:23:41;4.20;;;3.13;;
801;SDS011;383;48.766;9.270;2024-03-02T11:26:18;7.47;;;3.30;;
801;SDS011;383;48.766;9.270;2024-03-02T11:28:46;4.90;;;2.83;;
801;SDS011;383;48.766;9.270;2024-03-02T11:31:13;4.57;;;2.53;;
801;SDS011;383;48.766;9.270;2024-03-02T11:33:40;3.80;;;2.70;;
801;SDS011;383;48.766;9.270;2024-03-02T11:36:08;4.87;;;2.40;;
801;SDS011;383;48.766;9.270;2024-03-02T11:38:35;4.80;;;2.70;;
801;SDS011;383;48.766;9.270;2024-03-02T11:41:05;2.57;;;1.80;;
801;SDS011;383;48.766;9.270;2024-03-02T11:43:33;3.20;;;1.70;;
801;SDS011;383;48.766;9.270;2024-03-02T11:46:05;2.70;;;2.17;;
801;SDS011;383;48.766;9.270;2024-03-02T11:48:34;1.83;;;1.70;;
801;SDS011;383;48.766;9.270;2024-03-02T11:51:01;1.13;;;1.10;;
801;SDS011;383;48.766;9.270;2024-03-02T11:53:30;1.63;;;1.20;;
801;SDS011;383;48.766;9.270;2024-03-02T11:55:58;4.50;;;1.50;;
801;SDS011;383;48.766;9.270;2024-03-02T11:58:26;2.20;;;1.40;;
801;SDS011;383;48.766;9.270;2024-03-02T12:00:54;4.77;;;1.70;;
801;SDS011;383;48.766;9.270;2024-03-02T12:03:23;2.10;;;1.43;;
801;SDS011;383;48.766;9.270;2024-03-02T12:05:51;1.73;;;1.33;;
801;SDS011;383;48.766;9.270;2024-03-02T12:08:18;2.07;;;1.90;;
801;SDS011;383;48.766;9.270;2024-03-02T12:10:55;1.70;;;1.43;;
801;SDS011;383;48.766;9.270;2024-03-02T12:13:22;3.93;;;1.97;;
801;SDS011;383;48.766;9.270;2024-03-02T12:15:52;1.47;;;1.37;;
801;SDS011;383;48.766;9.270;2024-03-02T12:18:20;1.77;;;1.33;;
801;SDS011;383;48.766;9.270;2024-03-02T12:20:49;1.97;;;1.50;;
801;SDS011;383;48.766;9.270;2024-03-02T12:23:17;1.13;;;1.00;;
801;SDS011;383;48.766;9.270;2024-03-02T12:25:45;1.20;;;1.20;;
801;SDS011;383;48.766;9.270;2024-03-02T12:28:12;2.00;;;1.33;;
801;SDS011;383;48.766;9.270;2024-03-02T12:30:39;2.20;;;1.63;;
801;SDS011;383;48.766;9.270;2024-03-02T12:33:07;1.83;;;1.20;;
801;SDS011;383;48.766;9.270;2024-03-02T12:35:34;4.27;;;1.40;;
801;SDS011;383;48.766;9.270;2024-03-02T12:38:04;1.27;;;1.00;;
801;SDS011;383;48.766;9.270;2024-03-02T12:40:31;2.30;;;1.13;;
801;SDS011;383;48.766;9.270;2024-03-02T12:42:58;3.83;;;0.80;;
801;SDS011;383;48.766;9.270;2024-03-02T12:45:25;1.23;;;0.90;;
801;SDS011;383;48.766;9.270;2024-03-02T12:47:53;1.40;;;0.80;;
801;SDS011;383;48.766;9.270;2024-03-02T12:50:21;0.80;;;0.70;;
801;SDS011;383;48.766;9.270;2024-03-02T12:52:51;1.07;;;0.80;;
801;SDS011;383;48.766;9.270;2024-03-02T12:55:20;1.67;;;1.33;;
801;SDS011;383;48.766;9.270;2024-03-02T12:57:49;2.40;;;1.63;;
801;SDS011;383;48.766;9.270;2024-03-02T13:00:17;1.57;;;1.20;;
801;SDS011;383;48.766;9.270;2024-03-02T13:02:45;1.40;;;0.90;;
801;SDS011;383;48.766;9.270;2024-03-02T13:05:12;1.20;;;1.20;;
801;SDS011;383;48.766;9.270;2024-03-02T13:07:40;1.80;;;1.30;;
801;SDS011;383;48.766;9.270;2024-03-02T13:10:07;2.70;;;1.50;;
801;SDS011;383;48.766;9.270;2024-03-02T13:12:36;1.70;;;1.60;;
801;SDS011;383;48.766;9.270;2024-03-02T13:15:03;3.20;;;1.60;;
801;SDS011;383;48.766;9.270;2024-03-02T13:17:31;4.57;;;1.03;;
801;SDS011;383;48.766;9.270;2024-03-02T13:19:59;1.67;;;1.30;;
801;SDS011;383;48.766;9.270;2024-03-02T13:22:26;4.90;;;1.50;;
801;SDS011;383;48.766;9.270;2024-03-02T13:24:53;3.43;;;1.33;;
801;SDS011;383;48.766;9.270;2024-03-02T13:27:20;1.67;;;1.30;;
801;SDS011;383;48.766;9.270;2024-03-02T13:29:49;3.33;;;2.07;;
801;SDS011;383;48.766;9.270;2024-03-02T13:32:16;2.13;;;1.63;;
801;SDS011;383;48.766;9.270;2024-03-02T13:34:45;1.53;;;1.17;;
801;SDS011;383;48.766;9.270;2024-03-02T13:37:12;2.03;;;1.13;;
801;SDS011;383;48.766;9.270;2024-03-02T13:39:39;1.20;;;1.00;;
801;SDS011;383;48.766;9.270;2024-03-02T13:42:07;1.37;;;1.10;;
801;SDS011;383;48.766;9.270;2024-03-02T13:44:34;2.27;;;1.20;;
801;SDS011;383;48.766;9.270;2024-03-02T13:47:03;1.90;;;1.20;;
801;SDS011;383;48.766;9.270;2024-03-02T13:49:31;6.23;;;1.20;;
801;SDS011;383;48.766;9.270;2024-03-02T13:52:01;2.80;;;1.50;;
801;SDS011;383;48.766;9.270;2024-03-02T13:54:28;1.20;;;1.10;;
801;SDS011;383;48.766;9.270;2024-03-02T13:56:55;3.80;;;1.80;;
801;SDS011;383;48.766;9.270;2024-03-02T13:59:22;1.40;;;1.20;;
801;SDS011;383;48.766;9.270;2024-03-02T14:01:50;1.57;;;1.10;;
801;SDS011;383;48.766;9.270;2024-03-02T14:04:18;1.27;;;1.20;;
801;SDS011;383;48.766;9.270;2024-03-02T14:06:45;1.70;;;1.00;;
801;SDS011;383;48.766;9.270;2024-03-02T14:09:12;1.53;;;1.30;;
801;SDS011;383;48.766;9.270;2024-03-02T14:11:39;4.03;;;1.40;;
801;SDS011;383;48.766;9.270;2024-03-02T14:14:06;2.47;;;1.17;;
801;SDS011;383;48.766;9.270;2024-03-02T14:16:33;3.17;;;2.40;;
801;SDS011;383;48.766;9.270;2024-03-02T14:19:01;2.70;;;1.60;;
801;SDS011;383;48.766;9.270;2024-03-02T14:21:30;1.37;;;1.30;;
801;SDS011;383;48.766;9.270;2024-03-02T14:23:57;1.47;;;1.20;;
801;SDS011;383;48.766;9.270;2024-03-02T14:26:24;1.30;;;1.10;;
801;SDS011;383;48.766;9.270;2024-03-02T14:28:52;2.57;;;2.00;;
801;SDS011;383;48.766;9.270;2024-03-02T14:31:19;1.90;;;1.57;;
801;SDS011;383;48.766;9.270;2024-03-02T14:33:46;1.13;;;1.10;;
801;SDS011;383;48.766;9.270;2024-03-02T14:36:13;1.30;;;1.30;;
801;SDS011;383;48.766;9.270;2024-03-02T14:38:42;1.00;;;0.90;;
801;SDS011;383;48.766;9.270;2024-03-02T14:41:09;5.50;;;1.20;;
801;SDS011;383;48.766;9.270;2024-03-02T14:43:36;0.83;;;0.83;;
801;SDS011;383;48.766;9.270;2024-03-02T14:46:03;1.30;;;1.20;;
801;SDS011;383;48.766;9.270;2024-03-02T14:48:30;1.00;;;0.90;;
801;SDS011;383;48.766;9.270;2024-03-02T14:50:57;1.90;;;1.27;;
801;SDS011;383;48.766;9.270;2024-03-02T14:53:24;1.43;;;1.17;;
801;SDS011;383;48.766;9.270;2024-03-02T14:55:53;2.23;;;1.23;;
801;SDS011;383;48.766;9.270;2024-03-02T14:58:20;2.00;;;1.10;;
801;SDS011;383;48.766;9.270;2024-03-02T15:00:47;1.83;;;1.07;;
801;SDS011;383;48.766;9.270;2024-03-02T15:03:14;1.30;;;1.20;;
801;SDS011;383;48.766;9.270;2024-03-02T15:05:41;1.53;;;1.10;;
801;SDS011;383;48.766;9.270;2024-03-02T15:08:10;3.90;;;1.50;;
801;SDS011;383;48.766;9.270;2024-03-02T15:10:37;1.43;;;1.03;;
801;SDS011;383;48.766;9.270;2024-03-02T15:13:05;1.13;;;1.03;;
801;SDS011;383;48.766;9.270;2024-03-02T15:15:32;2.20;;;1.13;;
801;SDS011;383;48.766;9.270;2024-03-02T15:17:59;3.10;;;1.00;;
801;SDS011;383;48.766;9.270;2024-03-02T15:20:26;1.43;;;0.93;;
801;SDS011;383;48.766;9.270;2024-03-02T15:22:53;1.70;;;1.30;;
801;SDS011;383;48.766;9.270;2024-03-02T15:25:20;1.83;;;1.07;;
801;SDS011;383;48.766;9.270;2024-03-02T15:27:47;1.90;;;1.23;;
801;SDS011;383;48.766;9.270;2024-03-02T15:30:16;2.17;;;1.20;;
801;SDS011;383;48.766;9.270;2024-03-02T15:32:43;2.03;;;1.50;;
801;SDS011;383;48.766;9.270;2024-03-02T15:35:10;2.00;;;1.20;;